createdAt,value
2018-06-25T00:01:31.520Z,18.00
2018-06-25T00:03:59.747Z,18.00
2018-06-25T00:06:27.959Z,18.00
2018-06-25T00:08:56.208Z,18.00
2018-06-25T00:11:24.479Z,18.10
2018-06-25T00:13:52.703Z,18.10
2018-06-25T00:16:20.907Z,18.10
2018-06-25T00:18:49.127Z,18.10
2018-06-25T00:21:17.331Z,18.10
2018-06-25T00:23:45.528Z,18.10
2018-06-25T00:26:13.736Z,18.10
2018-06-25T00:28:41.975Z,18.10
2018-06-25T00:31:10.238Z,18.00
2018-06-25T00:36:06.406Z,18.00
2018-06-25T00:38:35.001Z,18.10
2018-06-25T00:41:03.206Z,18.20
2018-06-25T00:43:31.410Z,18.10
2018-06-25T00:48:27.597Z,18.10
2018-06-25T00:50:55.812Z,18.10
2018-06-25T00:53:24.030Z,18.10
2018-06-25T00:55:52.291Z,18.00
2018-06-25T01:00:48.500Z,18.00
2018-06-25T01:03:16.706Z,18.00
2018-06-25T01:08:12.892Z,18.00
2018-06-25T01:10:41.116Z,17.90
2018-06-25T01:13:09.326Z,17.90
2018-06-25T01:15:37.548Z,17.90
2018-06-25T01:18:05.865Z,17.90
2018-06-25T01:20:34.445Z,17.90
2018-06-25T01:23:02.652Z,17.90
2018-06-25T01:25:30.862Z,17.80
2018-06-25T01:27:59.069Z,17.80
2018-06-25T01:30:27.295Z,17.50
2018-06-25T01:32:55.534Z,17.80
2018-06-25T01:35:23.768Z,17.80
2018-06-25T01:37:51.973Z,17.80
2018-06-25T01:40:20.386Z,17.80
2018-06-25T01:42:48.594Z,17.90
2018-06-25T01:45:16.808Z,17.90
2018-06-25T01:47:45.041Z,17.90
2018-06-25T01:50:13.258Z,18.00
2018-06-25T01:52:41.459Z,18.00
2018-06-25T01:55:09.668Z,18.00
2018-06-25T01:57:37.841Z,18.00
2018-06-25T02:00:06.103Z,18.00
2018-06-25T02:02:34.273Z,17.90
2018-06-25T02:05:02.426Z,17.90
2018-06-25T02:07:30.591Z,17.80
2018-06-25T02:09:58.779Z,17.70
2018-06-25T02:12:26.943Z,17.70
2018-06-25T02:14:55.095Z,17.70
2018-06-25T02:17:23.276Z,17.50
2018-06-25T02:19:51.437Z,17.60
2018-06-25T02:22:19.750Z,17.50
2018-06-25T02:24:47.918Z,17.50
2018-06-25T02:27:16.080Z,17.40
2018-06-25T02:29:44.248Z,17.40
2018-06-25T02:32:12.415Z,17.30
2018-06-25T02:34:40.572Z,17.30
2018-06-25T02:37:08.731Z,17.20
2018-06-25T02:39:36.891Z,17.10
2018-06-25T02:42:05.076Z,17.10
2018-06-25T02:47:01.181Z,17.20
2018-06-25T02:49:29.374Z,17.20
2018-06-25T02:51:57.544Z,17.20
2018-06-25T02:54:25.973Z,17.10
2018-06-25T02:56:54.238Z,17.10
2018-06-25T02:59:22.469Z,17.00
2018-06-25T03:01:50.714Z,16.90
2018-06-25T03:04:18.932Z,16.90
2018-06-25T03:06:47.143Z,16.90
2018-06-25T03:09:15.371Z,16.90
2018-06-25T03:11:43.612Z,16.90
2018-06-25T03:14:11.856Z,16.90
2018-06-25T03:16:40.101Z,17.00
2018-06-25T03:19:08.442Z,16.90
2018-06-25T03:21:36.792Z,17.00
2018-06-25T03:24:05.015Z,16.80
2018-06-25T03:26:33.263Z,16.90
2018-06-25T03:29:01.497Z,16.80
2018-06-25T03:33:57.777Z,16.70
2018-06-25T03:36:25.999Z,16.60
2018-06-25T03:38:54.222Z,16.60
2018-06-25T03:41:22.465Z,16.60
2018-06-25T03:43:50.707Z,16.50
2018-06-25T03:46:18.936Z,16.50
2018-06-25T03:48:47.174Z,16.50
2018-06-25T03:51:15.387Z,16.50
2018-06-25T03:53:43.633Z,16.50
2018-06-25T03:56:11.859Z,16.50
2018-06-25T03:58:40.090Z,16.50
2018-06-25T04:01:08.393Z,16.30
2018-06-25T04:03:36.529Z,16.40
2018-06-25T04:06:04.970Z,16.30
2018-06-25T04:08:33.188Z,16.30
2018-06-25T04:11:01.407Z,16.30
2018-06-25T04:13:29.631Z,16.30
2018-06-25T04:15:57.859Z,16.20
2018-06-25T04:18:26.080Z,16.20
2018-06-25T04:20:54.311Z,16.10
2018-06-25T04:23:22.615Z,15.90
2018-06-25T04:25:50.822Z,15.90
2018-06-25T04:28:19.041Z,15.90
2018-06-25T04:30:47.302Z,16.00
2018-06-25T04:35:43.458Z,15.80
2018-06-25T04:38:11.705Z,16.00
2018-06-25T04:40:39.946Z,15.80
2018-06-25T04:43:08.198Z,15.70
2018-06-25T04:45:36.428Z,15.60
2018-06-25T04:50:32.637Z,15.50
2018-06-25T04:53:00.867Z,15.60
2018-06-25T04:55:29.093Z,15.70
2018-06-25T04:57:57.272Z,15.70
2018-06-25T05:00:25.442Z,15.70
2018-06-25T05:02:53.625Z,15.70
2018-06-25T05:05:21.794Z,15.70
2018-06-25T05:10:17.980Z,15.60
2018-06-25T05:12:46.176Z,15.60
2018-06-25T05:15:14.349Z,15.50
2018-06-25T05:17:42.537Z,15.50
2018-06-25T05:20:10.718Z,15.50
2018-06-25T05:22:38.903Z,15.60
2018-06-25T05:25:07.070Z,15.70
2018-06-25T05:27:35.241Z,15.70
2018-06-25T05:30:03.466Z,15.60
2018-06-25T05:32:31.658Z,15.70
2018-06-25T05:34:59.830Z,15.70
2018-06-25T05:37:28.076Z,15.60
2018-06-25T05:39:56.288Z,15.80
2018-06-25T05:42:24.480Z,15.90
2018-06-25T05:44:53.116Z,15.90
2018-06-25T05:47:21.802Z,15.90
2018-06-25T05:49:50.181Z,15.90
2018-06-25T05:52:18.471Z,15.80
2018-06-25T05:54:46.650Z,15.80
2018-06-25T05:57:14.839Z,15.80
2018-06-25T05:59:43.385Z,15.70
2018-06-25T06:02:11.559Z,15.70
2018-06-25T06:04:39.725Z,15.80
2018-06-25T06:07:07.897Z,15.90
2018-06-25T06:09:36.096Z,16.00
2018-06-25T06:12:04.334Z,16.00
2018-06-25T06:17:00.484Z,16.00
2018-06-25T06:19:28.865Z,16.00
2018-06-25T06:21:57.089Z,15.90
2018-06-25T06:24:25.281Z,15.90
2018-06-25T06:26:53.436Z,15.90
2018-06-25T06:29:21.616Z,15.90
2018-06-25T06:31:49.802Z,15.90
2018-06-25T06:34:18.001Z,16.00
2018-06-25T06:36:46.163Z,15.90
2018-06-25T06:39:15.469Z,16.20
2018-06-25T06:41:45.069Z,16.10
2018-06-25T06:46:41.217Z,16.10
2018-06-25T06:51:37.790Z,16.00
2018-06-25T06:54:06.003Z,16.10
2018-06-25T06:56:34.434Z,16.10
2018-06-25T06:59:02.739Z,16.00
2018-06-25T07:01:31.043Z,15.90
2018-06-25T07:03:59.281Z,16.00
2018-06-25T07:06:27.614Z,16.00
2018-06-25T07:08:55.904Z,16.00
2018-06-25T07:11:24.235Z,16.00
2018-06-25T07:13:52.478Z,16.00
2018-06-25T07:16:20.687Z,16.00
2018-06-25T07:18:48.924Z,16.10
2018-06-25T07:21:17.155Z,16.10
2018-06-25T07:23:45.399Z,16.00
2018-06-25T07:26:18.728Z,16.00
2018-06-25T07:28:46.991Z,16.00
2018-06-25T07:36:11.079Z,16.20
2018-06-25T07:38:39.268Z,16.10
2018-06-25T07:41:07.439Z,16.00
2018-06-25T07:43:35.615Z,16.00
2018-06-25T07:48:31.751Z,16.00
2018-06-25T07:50:59.955Z,16.00
2018-06-25T07:53:28.247Z,15.80
2018-06-25T07:55:56.313Z,15.90
2018-06-25T07:58:24.626Z,15.80
2018-06-25T08:00:52.868Z,15.70
2018-06-25T08:03:21.101Z,15.70
2018-06-25T08:05:49.353Z,15.70
2018-06-25T08:08:17.599Z,15.70
2018-06-25T08:13:13.817Z,15.70
2018-06-25T08:15:42.089Z,15.80
2018-06-25T08:18:10.320Z,15.80
2018-06-25T08:20:38.534Z,15.80
2018-06-25T08:23:06.790Z,15.80
2018-06-25T08:25:35.070Z,15.90
2018-06-25T08:28:03.287Z,15.90
2018-06-25T08:30:31.524Z,16.00
2018-06-25T08:32:59.749Z,16.10
2018-06-25T08:37:55.943Z,16.10
2018-06-25T08:40:24.165Z,16.10
2018-06-25T08:45:20.327Z,16.50
2018-06-25T08:47:48.541Z,16.00
2018-06-25T08:50:16.754Z,16.00
2018-06-25T08:52:44.969Z,16.00
2018-06-25T08:55:13.197Z,16.00
2018-06-25T08:57:41.429Z,16.00
2018-06-25T09:00:09.668Z,16.10
2018-06-25T09:02:37.890Z,16.10
2018-06-25T09:05:06.184Z,16.20
2018-06-25T09:07:34.363Z,16.20
2018-06-25T09:10:03.562Z,16.20
2018-06-25T09:12:31.785Z,16.20
2018-06-25T09:15:00.058Z,16.30
2018-06-25T09:17:28.266Z,16.30
2018-06-25T09:19:56.483Z,16.40
2018-06-25T09:24:52.667Z,16.40
2018-06-25T09:27:20.881Z,16.40
2018-06-25T09:29:49.106Z,16.50
2018-06-25T09:32:17.322Z,16.50
2018-06-25T09:34:48.506Z,16.50
2018-06-25T09:39:45.298Z,16.60
2018-06-25T09:42:13.499Z,16.40
2018-06-25T09:44:41.717Z,16.40
2018-06-25T09:47:10.072Z,16.40
2018-06-25T09:52:06.307Z,16.40
2018-06-25T09:54:34.525Z,16.40
2018-06-25T09:57:02.753Z,16.30
2018-06-25T09:59:30.967Z,16.40
2018-06-25T10:01:59.183Z,16.40
2018-06-25T10:04:27.416Z,16.40
2018-06-25T10:06:55.621Z,16.50
2018-06-25T10:09:23.855Z,16.60
2018-06-25T10:14:20.019Z,16.80
2018-06-25T10:16:48.245Z,16.80
2018-06-25T10:19:16.478Z,16.90
2018-06-25T10:21:44.714Z,17.00
2018-06-25T10:24:12.928Z,17.00
2018-06-25T10:26:41.161Z,17.10
2018-06-25T10:29:09.368Z,17.10
2018-06-25T10:31:37.600Z,17.00
2018-06-25T10:34:05.833Z,17.00
2018-06-25T10:36:34.051Z,17.00
2018-06-25T10:39:02.282Z,17.00
2018-06-25T10:41:30.524Z,17.00
2018-06-25T10:43:58.721Z,16.90
2018-06-25T10:46:26.944Z,16.90
2018-06-25T10:48:55.188Z,17.30
2018-06-25T10:51:23.469Z,17.00
2018-06-25T10:53:51.697Z,17.10
2018-06-25T10:56:19.935Z,17.20
2018-06-25T10:58:48.157Z,17.20
2018-06-25T11:01:16.376Z,17.20
2018-06-25T11:03:44.602Z,17.20
2018-06-25T11:06:12.812Z,17.10
2018-06-25T11:08:41.128Z,17.30
2018-06-25T11:11:09.718Z,17.40
2018-06-25T11:16:06.473Z,17.40
2018-06-25T11:18:34.758Z,17.60
2018-06-25T11:23:30.961Z,18.00
2018-06-25T11:25:59.199Z,18.00
2018-06-25T11:28:27.687Z,18.10
2018-06-25T11:30:56.211Z,18.10
2018-06-25T11:33:24.431Z,18.10
2018-06-25T11:35:52.752Z,18.20
2018-06-25T11:38:20.969Z,18.30
2018-06-25T11:40:49.187Z,18.40
2018-06-25T11:43:17.389Z,18.40
2018-06-25T11:45:45.618Z,18.50
2018-06-25T11:48:14.073Z,18.40
2018-06-25T11:50:42.352Z,18.80
2018-06-25T11:53:10.568Z,18.70
2018-06-25T11:55:38.775Z,18.70
2018-06-25T11:58:07.027Z,18.60
2018-06-25T12:00:35.342Z,18.60
2018-06-25T12:03:03.663Z,18.70
2018-06-25T12:05:31.801Z,18.80
2018-06-25T12:08:00.058Z,18.90
2018-06-25T12:10:28.326Z,19.00
2018-06-25T12:12:56.499Z,19.10
2018-06-25T12:15:24.727Z,19.10
2018-06-25T12:17:52.963Z,18.80
2018-06-25T12:20:21.178Z,18.70
2018-06-25T12:22:49.407Z,18.70
2018-06-25T12:25:17.635Z,18.80
2018-06-25T12:27:45.859Z,19.00
2018-06-25T12:30:14.099Z,19.10
2018-06-25T12:32:42.301Z,19.10
2018-06-25T12:35:10.516Z,19.20
2018-06-25T12:37:38.760Z,19.20
2018-06-25T12:40:06.955Z,19.30
2018-06-25T12:42:35.187Z,19.50
2018-06-25T12:45:03.386Z,19.40
2018-06-25T12:49:59.559Z,19.80
2018-06-25T12:52:27.792Z,19.50
2018-06-25T12:54:56.017Z,19.50
2018-06-25T12:57:24.226Z,19.60
2018-06-25T12:59:52.460Z,19.70
2018-06-25T13:02:20.785Z,19.80
2018-06-25T13:04:49.021Z,19.90
2018-06-25T13:07:17.242Z,19.90
2018-06-25T13:09:45.490Z,20.00
2018-06-25T13:12:13.707Z,20.20
2018-06-25T13:17:09.917Z,20.30
2018-06-25T13:19:38.140Z,20.40
2018-06-25T13:22:06.931Z,20.50
2018-06-25T13:24:35.167Z,20.50
2018-06-25T13:27:03.376Z,20.60
2018-06-25T13:29:31.599Z,20.70
2018-06-25T13:31:59.824Z,20.80
2018-06-25T13:34:28.048Z,20.70
2018-06-25T13:36:56.264Z,20.80
2018-06-25T13:39:24.535Z,20.70
2018-06-25T13:41:52.741Z,20.70
2018-06-25T13:44:21.041Z,20.70
2018-06-25T13:51:45.142Z,21.20
2018-06-25T13:54:13.357Z,20.50
2018-06-25T13:59:09.523Z,20.70
2018-06-25T14:01:37.743Z,20.80
2018-06-25T14:04:05.972Z,20.80
2018-06-25T14:09:02.086Z,20.80
2018-06-25T14:11:30.257Z,20.80
2018-06-25T14:13:58.433Z,20.90
2018-06-25T14:16:26.627Z,20.90
2018-06-25T14:18:54.941Z,21.00
2018-06-25T14:21:23.112Z,21.10
2018-06-25T14:23:56.687Z,21.10
2018-06-25T14:26:29.086Z,21.10
2018-06-25T14:28:57.247Z,21.30
2018-06-25T14:31:28.102Z,21.20
2018-06-25T14:34:01.489Z,21.20
2018-06-25T14:36:29.642Z,21.10
2018-06-25T14:38:57.822Z,21.20
2018-06-25T14:41:25.994Z,21.10
2018-06-25T14:43:54.185Z,21.00
2018-06-25T14:46:22.351Z,21.10
2018-06-25T14:48:50.533Z,21.10
2018-06-25T14:51:18.696Z,21.00
2018-06-25T14:53:46.859Z,21.00
2018-06-25T14:56:15.042Z,20.80
2018-06-25T14:58:43.224Z,20.80
2018-06-25T15:01:11.401Z,20.80
2018-06-25T15:03:39.570Z,20.90
2018-06-25T15:06:07.745Z,20.90
2018-06-25T15:08:35.906Z,21.00
2018-06-25T15:11:04.092Z,21.00
2018-06-25T15:13:32.247Z,21.00
2018-06-25T15:16:00.486Z,21.10
2018-06-25T15:18:28.674Z,21.10
2018-06-25T15:20:56.849Z,21.20
2018-06-25T15:25:52.993Z,21.20
2018-06-25T15:28:21.172Z,21.20
2018-06-25T15:30:49.346Z,21.20
2018-06-25T15:33:17.551Z,21.10
2018-06-25T15:35:45.717Z,21.20
2018-06-25T15:38:13.884Z,21.20
2018-06-25T15:40:42.028Z,21.20
2018-06-25T15:43:10.194Z,21.20
2018-06-25T15:45:38.354Z,21.20
2018-06-25T15:48:06.632Z,21.00
2018-06-25T15:53:02.651Z,21.10
2018-06-25T15:55:30.798Z,20.90
2018-06-25T15:57:58.980Z,21.10
2018-06-25T16:00:27.141Z,21.10
2018-06-25T16:02:55.320Z,21.10
2018-06-25T16:05:23.613Z,21.20
2018-06-25T16:07:51.971Z,21.20
2018-06-25T16:10:20.125Z,21.20
2018-06-25T16:12:48.286Z,21.30
2018-06-25T16:17:44.410Z,21.20
2018-06-25T16:20:12.577Z,21.20
2018-06-25T16:22:40.761Z,21.30
2018-06-25T16:25:08.937Z,21.20
2018-06-25T16:27:37.372Z,21.10
2018-06-25T16:30:05.861Z,21.20
2018-06-25T16:32:34.026Z,21.20
2018-06-25T16:35:02.197Z,21.20
2018-06-25T16:37:30.349Z,21.10
2018-06-25T16:39:58.497Z,20.90
2018-06-25T16:42:26.658Z,20.90
2018-06-25T16:44:54.819Z,21.00
2018-06-25T16:47:22.968Z,21.00
2018-06-25T16:49:51.141Z,21.00
2018-06-25T16:52:19.320Z,20.90
2018-06-25T16:54:47.481Z,20.80
2018-06-25T16:57:15.688Z,20.90
2018-06-25T16:59:43.926Z,20.80
2018-06-25T17:04:40.102Z,20.90
2018-06-25T17:07:08.336Z,20.90
2018-06-25T17:09:36.687Z,20.80
2018-06-25T17:12:04.935Z,20.90
2018-06-25T17:14:33.185Z,20.90
2018-06-25T17:17:01.400Z,20.80
2018-06-25T17:19:29.612Z,20.60
2018-06-25T17:21:57.847Z,20.60
2018-06-25T17:24:26.029Z,20.50
2018-06-25T17:26:54.277Z,20.40
2018-06-25T17:29:22.480Z,20.40
2018-06-25T17:31:50.797Z,20.40
2018-06-25T17:34:18.995Z,20.50
2018-06-25T17:36:47.211Z,20.50
2018-06-25T17:39:15.548Z,20.50
2018-06-25T17:41:43.770Z,20.60
2018-06-25T17:46:39.935Z,20.60
2018-06-25T17:49:08.155Z,20.60
2018-06-25T17:51:36.371Z,20.50
2018-06-25T17:54:04.851Z,20.40
2018-06-25T17:59:00.952Z,20.50
2018-06-25T18:01:29.110Z,20.50
2018-06-25T18:03:57.321Z,20.50
2018-06-25T18:06:25.440Z,20.50
2018-06-25T18:08:53.595Z,20.60
2018-06-25T18:11:21.968Z,20.50
2018-06-25T18:13:50.151Z,20.40
2018-06-25T18:16:18.649Z,20.40
2018-06-25T18:18:46.828Z,20.40
2018-06-25T18:21:14.987Z,20.50
2018-06-25T18:23:43.146Z,20.50
2018-06-25T18:26:11.339Z,20.50
2018-06-25T18:28:39.488Z,20.50
2018-06-25T18:31:07.750Z,20.50
2018-06-25T18:36:03.859Z,20.50
2018-06-25T18:38:32.027Z,20.40
2018-06-25T18:41:00.190Z,20.30
2018-06-25T18:43:28.362Z,20.30
2018-06-25T18:45:56.511Z,20.20
2018-06-25T18:48:24.681Z,20.10
2018-06-25T18:50:52.838Z,20.10
2018-06-25T18:55:48.955Z,20.10
2018-06-25T18:58:17.170Z,20.10
2018-06-25T19:00:45.361Z,20.10
2018-06-25T19:03:13.577Z,20.10
2018-06-25T19:05:41.791Z,20.00
2018-06-25T19:08:09.998Z,20.10
2018-06-25T19:10:38.212Z,20.00
2018-06-25T19:13:06.415Z,19.90
2018-06-25T19:15:34.658Z,19.80
2018-06-25T19:18:02.874Z,19.60
2018-06-25T19:20:31.091Z,19.40
2018-06-25T19:22:59.295Z,19.20
2018-06-25T19:27:55.445Z,19.00
2018-06-25T19:30:23.653Z,19.00
2018-06-25T19:32:51.868Z,19.10
2018-06-25T19:35:20.100Z,19.10
2018-06-25T19:37:48.336Z,18.90
2018-06-25T19:40:16.625Z,19.10
2018-06-25T19:42:45.050Z,19.10
2018-06-25T19:45:13.282Z,19.10
2018-06-25T19:47:41.490Z,19.00
2018-06-25T19:50:09.791Z,18.90
2018-06-25T19:52:38.022Z,18.90
2018-06-25T19:55:06.227Z,18.60
2018-06-25T19:57:34.393Z,18.80
2018-06-25T20:00:02.562Z,18.70
2018-06-25T20:02:30.715Z,18.80
2018-06-25T20:04:58.873Z,18.80
2018-06-25T20:07:27.040Z,18.80
2018-06-25T20:09:55.218Z,18.80
2018-06-25T20:12:23.443Z,18.80
2018-06-25T20:14:51.672Z,18.80
2018-06-25T20:17:19.827Z,18.70
2018-06-25T20:19:48.083Z,18.60
2018-06-25T20:22:16.461Z,18.60
2018-06-25T20:24:44.554Z,18.60
2018-06-25T20:27:12.756Z,18.50
2018-06-25T20:29:40.931Z,18.40
2018-06-25T20:32:09.216Z,18.40
2018-06-25T20:34:37.357Z,18.30
2018-06-25T20:37:05.531Z,18.40
2018-06-25T20:39:33.691Z,18.30
2018-06-25T20:44:29.779Z,18.30
2018-06-25T20:46:57.965Z,18.40
2018-06-25T20:49:26.098Z,18.30
2018-06-25T20:51:54.298Z,18.30
2018-06-25T20:54:22.459Z,18.30
2018-06-25T20:56:50.756Z,18.20
2018-06-25T20:59:18.915Z,18.20
2018-06-25T21:01:47.159Z,18.20
2018-06-25T21:04:15.394Z,18.20
2018-06-25T21:06:43.619Z,18.00
2018-06-25T21:09:12.658Z,18.10
2018-06-25T21:11:41.794Z,18.10
2018-06-25T21:14:10.022Z,18.10
2018-06-25T21:16:38.225Z,18.10
2018-06-25T21:19:06.461Z,18.10
2018-06-25T21:21:34.687Z,18.10
2018-06-25T21:24:02.887Z,18.20
2018-06-25T21:26:31.098Z,18.20
2018-06-25T21:28:59.305Z,18.20
2018-06-25T21:31:27.517Z,18.20
2018-06-25T21:33:55.744Z,18.10
2018-06-25T21:36:23.980Z,18.10
2018-06-25T21:38:52.167Z,17.90
2018-06-25T21:41:20.375Z,17.90
2018-06-25T21:43:48.609Z,17.80
2018-06-25T21:46:16.824Z,17.70
2018-06-25T21:48:45.391Z,17.70
2018-06-25T21:51:13.597Z,17.50
2018-06-25T21:53:41.827Z,17.50
2018-06-25T21:56:10.032Z,17.60
2018-06-25T21:58:38.174Z,17.60
2018-06-25T22:01:06.359Z,17.70
2018-06-25T22:03:34.523Z,17.70
2018-06-25T22:06:02.668Z,17.80
2018-06-25T22:08:30.844Z,17.80
2018-06-25T22:10:59.824Z,17.70
2018-06-25T22:13:27.979Z,17.70
2018-06-25T22:15:56.138Z,17.60
2018-06-25T22:18:24.285Z,17.60
2018-06-25T22:20:52.453Z,17.50
2018-06-25T22:23:20.606Z,17.40
2018-06-25T22:25:48.774Z,17.30
2018-06-25T22:28:16.929Z,17.30
2018-06-25T22:30:45.101Z,17.30
2018-06-25T22:33:13.260Z,17.20
2018-06-25T22:38:09.354Z,17.30
2018-06-25T22:40:42.274Z,17.30
2018-06-25T22:43:10.449Z,17.30
2018-06-25T22:45:38.598Z,17.30
2018-06-25T22:48:06.757Z,17.20
2018-06-25T22:50:34.926Z,17.20
2018-06-25T22:53:03.081Z,17.10
2018-06-25T22:55:33.278Z,17.10
2018-06-25T23:00:29.625Z,17.00
2018-06-25T23:02:57.783Z,17.00
2018-06-25T23:05:26.104Z,17.00
2018-06-25T23:07:54.365Z,16.90
2018-06-25T23:12:50.528Z,16.90
2018-06-25T23:15:18.687Z,16.90
2018-06-25T23:17:46.849Z,16.90
2018-06-25T23:20:15.047Z,16.90
2018-06-25T23:22:43.224Z,16.90
2018-06-25T23:25:11.407Z,16.90
2018-06-25T23:27:39.569Z,16.80
2018-06-25T23:30:07.715Z,16.80
2018-06-25T23:32:35.930Z,16.80
2018-06-25T23:35:04.106Z,16.70
2018-06-25T23:37:32.258Z,16.70
2018-06-25T23:40:00.418Z,16.60
2018-06-25T23:42:28.612Z,16.60
2018-06-25T23:44:56.767Z,16.30
2018-06-25T23:47:24.927Z,16.70
2018-06-25T23:49:53.089Z,16.60
2018-06-25T23:52:21.252Z,16.60
2018-06-25T23:54:49.400Z,16.50
2018-06-25T23:57:17.560Z,16.50
2018-06-25T23:59:45.795Z,16.50
